createdAt,value
2022-10-05T00:02:19.512Z,54.40
2022-10-05T00:05:27.227Z,54.40
2022-10-05T00:08:33.063Z,54.20
2022-10-05T00:11:34.524Z,54.20
2022-10-05T00:14:36.631Z,54.50
2022-10-05T00:17:38.392Z,54.40
2022-10-05T00:20:41.996Z,54.40
2022-10-05T00:23:43.407Z,54.40
2022-10-05T00:26:45.099Z,54.40
2022-10-05T00:29:48.348Z,54.50
2022-10-05T00:32:50.782Z,54.30
2022-10-05T00:35:53.063Z,54.70
2022-10-05T00:38:54.980Z,53.90
2022-10-05T00:42:12.257Z,54.30
2022-10-05T00:45:21.608Z,54.20
2022-10-05T00:48:32.219Z,53.80
2022-10-05T00:51:36.790Z,53.90
2022-10-05T00:54:41.978Z,54.00
2022-10-05T00:57:55.303Z,53.80
2022-10-05T01:01:05.524Z,53.80
2022-10-05T01:04:16.045Z,53.90
2022-10-05T01:07:26.845Z,54.00
2022-10-05T01:10:37.467Z,54.00
2022-10-05T01:13:48.684Z,54.00
2022-10-05T01:16:55.662Z,54.10
2022-10-05T01:20:20.131Z,53.80
2022-10-05T01:23:43.452Z,54.00
2022-10-05T01:27:11.605Z,54.20
2022-10-05T01:30:21.065Z,54.20
2022-10-05T01:33:28.988Z,54.20
2022-10-05T01:36:36.921Z,54.10
2022-10-05T01:39:45.978Z,54.10
2022-10-05T01:42:59.039Z,54.40
2022-10-05T01:46:12.086Z,54.30
2022-10-05T01:49:33.193Z,54.70
2022-10-05T01:52:46.804Z,54.60
2022-10-05T01:55:55.825Z,54.90
2022-10-05T01:59:07.537Z,54.90
2022-10-05T02:02:12.249Z,54.90
2022-10-05T02:05:18.987Z,55.10
2022-10-05T02:08:26.974Z,55.20
2022-10-05T02:11:31.790Z,55.40
2022-10-05T02:14:37.842Z,55.30
2022-10-05T02:17:44.913Z,55.40
2022-10-05T02:20:48.994Z,55.50
2022-10-05T02:23:56.087Z,55.70
2022-10-05T02:26:58.530Z,55.70
2022-10-05T02:30:04.939Z,56.50
2022-10-05T02:33:21.490Z,55.70
2022-10-05T02:36:29.052Z,55.70
2022-10-05T02:39:39.583Z,55.60
2022-10-05T02:42:51.410Z,56.00
2022-10-05T02:46:03.938Z,55.90
2022-10-05T02:49:18.045Z,55.90
2022-10-05T02:52:30.633Z,56.10
2022-10-05T02:55:39.509Z,55.90
2022-10-05T02:58:48.512Z,55.90
2022-10-05T03:01:54.249Z,56.00
2022-10-05T03:05:07.485Z,55.90
2022-10-05T03:08:16.285Z,56.00
2022-10-05T03:11:24.886Z,56.10
2022-10-05T03:14:32.847Z,56.20
2022-10-05T03:17:42.721Z,56.20
2022-10-05T03:20:57.173Z,56.10
2022-10-05T03:24:18.130Z,56.00
2022-10-05T03:27:32.942Z,56.20
2022-10-05T03:30:39.341Z,56.00
2022-10-05T03:33:48.305Z,56.20
2022-10-05T03:36:58.565Z,56.30
2022-10-05T03:40:05.962Z,56.20
2022-10-05T03:43:23.941Z,56.20
2022-10-05T03:46:38.556Z,56.10
2022-10-05T03:49:52.341Z,56.10
2022-10-05T03:52:59.296Z,56.10
2022-10-05T03:56:09.665Z,56.30
2022-10-05T03:59:16.439Z,56.30
2022-10-05T04:02:24.316Z,56.30
2022-10-05T04:05:29.958Z,56.60
2022-10-05T04:08:47.456Z,56.30
2022-10-05T04:11:56.018Z,56.40
2022-10-05T04:15:03.332Z,56.60
2022-10-05T04:18:21.523Z,56.50
2022-10-05T04:21:27.904Z,56.30
2022-10-05T04:24:36.076Z,56.50
2022-10-05T04:27:42.578Z,56.50
2022-10-05T04:30:48.698Z,56.60
2022-10-05T04:33:59.704Z,56.60
2022-10-05T04:37:06.368Z,56.80
2022-10-05T04:40:21.262Z,56.30
2022-10-05T04:43:31.831Z,56.70
2022-10-05T04:46:51.414Z,56.80
2022-10-05T04:50:07.218Z,56.80
2022-10-05T04:53:21.847Z,56.70
2022-10-05T04:56:33.903Z,56.50
2022-10-05T04:59:57.773Z,56.50
2022-10-05T05:03:12.984Z,56.80
2022-10-05T05:06:28.563Z,56.70
2022-10-05T05:09:51.874Z,56.50
2022-10-05T05:13:06.995Z,56.50
2022-10-05T05:16:15.511Z,56.60
2022-10-05T05:19:30.041Z,56.50
2022-10-05T05:22:39.123Z,56.40
2022-10-05T05:25:51.144Z,56.60
2022-10-05T05:29:02.252Z,56.50
2022-10-05T05:32:12.666Z,56.40
2022-10-05T05:35:34.595Z,56.50
2022-10-05T05:38:41.036Z,56.30
2022-10-05T05:41:53.615Z,56.60
2022-10-05T05:45:03.900Z,57.10
2022-10-05T05:48:15.944Z,56.60
2022-10-05T05:51:22.468Z,56.50
2022-10-05T05:54:30.345Z,56.70
2022-10-05T05:57:38.219Z,56.80
2022-10-05T06:00:45.809Z,56.60
2022-10-05T06:03:52.808Z,56.50
2022-10-05T06:06:57.711Z,56.50
2022-10-05T06:10:25.549Z,56.60
2022-10-05T06:13:38.071Z,56.60
2022-10-05T06:16:46.735Z,56.80
2022-10-05T06:19:53.684Z,56.80
2022-10-05T06:23:00.267Z,56.90
2022-10-05T06:26:14.205Z,56.70
2022-10-05T06:29:22.583Z,56.70
2022-10-05T06:32:31.090Z,56.80
2022-10-05T06:35:48.590Z,56.90
2022-10-05T06:39:05.621Z,56.70
2022-10-05T06:42:20.728Z,56.90
2022-10-05T06:45:48.453Z,57.40
2022-10-05T06:49:13.840Z,57.00
2022-10-05T06:52:45.906Z,57.00
2022-10-05T06:55:55.627Z,56.80
2022-10-05T06:59:04.699Z,57.00
2022-10-05T07:02:14.145Z,56.90
2022-10-05T07:05:40.669Z,56.90
2022-10-05T07:08:59.603Z,57.00
2022-10-05T07:12:22.279Z,57.00
2022-10-05T07:15:41.869Z,57.20
2022-10-05T07:18:55.459Z,57.40
2022-10-05T07:22:18.670Z,57.00
2022-10-05T07:25:27.124Z,57.20
2022-10-05T07:28:35.865Z,57.70
2022-10-05T07:31:47.568Z,57.40
2022-10-05T07:34:59.764Z,57.40
2022-10-05T07:38:10.685Z,57.40
2022-10-05T07:41:19.336Z,57.20
2022-10-05T07:44:28.728Z,57.40
2022-10-05T07:47:37.419Z,57.40
2022-10-05T07:50:48.343Z,57.20
2022-10-05T07:54:01.007Z,57.40
2022-10-05T07:57:14.133Z,56.90
2022-10-05T08:00:19.706Z,57.30
2022-10-05T08:03:29.155Z,57.30
2022-10-05T08:06:43.209Z,57.50
2022-10-05T08:09:51.729Z,57.30
2022-10-05T08:13:07.301Z,57.50
2022-10-05T08:16:11.815Z,57.50
2022-10-05T08:19:18.537Z,57.40
2022-10-05T08:22:24.124Z,57.50
2022-10-05T08:25:38.384Z,57.40
2022-10-05T08:28:46.316Z,57.40
2022-10-05T08:31:51.583Z,57.60
2022-10-05T08:35:02.164Z,57.50
2022-10-05T08:38:14.242Z,57.60
2022-10-05T08:41:49.337Z,57.50
2022-10-05T08:45:12.283Z,57.60
2022-10-05T08:48:44.435Z,57.70
2022-10-05T08:52:14.346Z,57.50
2022-10-05T08:55:28.747Z,57.50
2022-10-05T08:58:58.120Z,57.60
2022-10-05T09:02:17.995Z,57.50
2022-10-05T09:05:37.305Z,57.20
2022-10-05T09:08:54.894Z,57.30
2022-10-05T09:12:15.394Z,57.30
2022-10-05T09:15:37.908Z,57.10
2022-10-05T09:19:05.583Z,56.90
2022-10-05T09:22:15.219Z,56.70
2022-10-05T09:25:23.059Z,56.50
2022-10-05T09:28:31.650Z,56.50
2022-10-05T09:31:57.202Z,57.00
2022-10-05T09:35:08.093Z,56.10
2022-10-05T09:38:19.556Z,55.70
2022-10-05T09:41:43.201Z,55.80
2022-10-05T09:45:10.971Z,56.10
2022-10-05T09:48:37.958Z,55.80
2022-10-05T09:52:05.361Z,55.50
2022-10-05T09:55:28.571Z,55.20
2022-10-05T09:58:55.625Z,55.20
2022-10-05T10:02:16.226Z,54.90
2022-10-05T10:05:40.890Z,54.90
2022-10-05T10:09:06.538Z,54.60
2022-10-05T10:12:27.178Z,54.60
2022-10-05T10:15:47.622Z,54.40
2022-10-05T10:19:06.066Z,54.40
2022-10-05T10:22:37.627Z,54.30
2022-10-05T10:26:10.970Z,54.20
2022-10-05T10:29:30.918Z,53.90
2022-10-05T10:33:00.987Z,54.00
2022-10-05T10:36:09.053Z,53.80
2022-10-05T10:39:16.260Z,53.30
2022-10-05T10:42:35.775Z,53.70
2022-10-05T10:45:47.658Z,53.30
2022-10-05T10:48:56.694Z,53.40
2022-10-05T10:52:25.105Z,53.30
2022-10-05T10:55:38.236Z,53.20
2022-10-05T10:59:00.857Z,53.40
2022-10-05T11:02:26.315Z,53.00
2022-10-05T11:05:48.679Z,52.80
2022-10-05T11:09:18.972Z,52.90
2022-10-05T11:12:50.143Z,52.90
2022-10-05T11:16:22.325Z,53.10
2022-10-05T11:20:05.621Z,52.80
2022-10-05T11:23:29.404Z,52.70
2022-10-05T11:26:47.241Z,52.60
2022-10-05T11:30:18.225Z,52.60
2022-10-05T11:33:47.410Z,52.50
2022-10-05T11:37:12.893Z,52.70
2022-10-05T11:40:37.984Z,52.50
2022-10-05T11:44:07.185Z,52.60
2022-10-05T11:47:16.187Z,52.60
2022-10-05T11:50:24.339Z,52.50
2022-10-05T11:53:31.660Z,52.60
2022-10-05T11:56:38.899Z,52.50
2022-10-05T11:59:50.982Z,52.60
2022-10-05T12:03:15.263Z,52.50
2022-10-05T12:06:32.016Z,52.40
2022-10-05T12:10:03.066Z,52.60
2022-10-05T12:13:12.429Z,52.40
2022-10-05T12:16:20.472Z,53.20
2022-10-05T12:19:28.955Z,52.60
2022-10-05T12:22:36.922Z,52.70
2022-10-05T12:25:43.647Z,52.70
2022-10-05T12:28:49.263Z,52.60
2022-10-05T12:31:58.756Z,52.70
2022-10-05T12:35:10.820Z,53.10
2022-10-05T12:38:24.118Z,52.80
2022-10-05T12:41:37.030Z,52.90
2022-10-05T12:44:56.571Z,53.00
2022-10-05T12:48:13.711Z,53.00
2022-10-05T12:51:21.784Z,53.00
2022-10-05T12:54:40.028Z,53.00
2022-10-05T12:57:52.046Z,53.00
2022-10-05T13:01:04.438Z,53.20
2022-10-05T13:04:21.239Z,53.40
2022-10-05T13:07:35.381Z,53.60
2022-10-05T13:10:42.203Z,53.50
2022-10-05T13:13:53.583Z,53.70
2022-10-05T13:16:58.574Z,53.80
2022-10-05T13:20:07.527Z,53.90
2022-10-05T13:23:13.958Z,53.90
2022-10-05T13:26:19.147Z,53.80
2022-10-05T13:29:24.883Z,54.00
2022-10-05T13:32:33.583Z,54.00
2022-10-05T13:35:45.982Z,54.50
2022-10-05T13:38:57.622Z,54.40
2022-10-05T13:42:08.235Z,54.60
2022-10-05T13:45:16.557Z,54.70
2022-10-05T13:48:40.197Z,54.80
2022-10-05T13:51:49.633Z,55.00
2022-10-05T13:54:57.863Z,55.10
2022-10-05T13:58:05.559Z,55.20
2022-10-05T14:01:14.164Z,55.40
2022-10-05T14:04:19.025Z,55.60
2022-10-05T14:07:29.294Z,55.70
2022-10-05T14:10:35.867Z,56.00
2022-10-05T14:13:46.629Z,56.10
2022-10-05T14:16:51.969Z,56.50
2022-10-05T14:19:59.185Z,56.50
2022-10-05T14:23:03.414Z,56.60
2022-10-05T14:26:18.004Z,56.70
2022-10-05T14:29:24.394Z,56.90
2022-10-05T14:32:29.525Z,57.70
2022-10-05T14:35:44.737Z,57.20
2022-10-05T14:38:52.607Z,57.50
2022-10-05T14:41:54.378Z,57.40
2022-10-05T14:44:59.320Z,57.70
2022-10-05T14:48:09.022Z,57.90
2022-10-05T14:51:23.474Z,58.30
2022-10-05T14:54:35.133Z,58.30
2022-10-05T14:57:43.909Z,58.60
2022-10-05T15:00:56.086Z,58.90
2022-10-05T15:04:07.587Z,59.30
2022-10-05T15:07:21.542Z,59.40
2022-10-05T15:10:32.080Z,59.60
2022-10-05T15:13:37.652Z,59.90
2022-10-05T15:16:41.377Z,59.90
2022-10-05T15:19:53.517Z,60.00
2022-10-05T15:23:04.547Z,60.20
2022-10-05T15:26:23.622Z,60.50
2022-10-05T15:29:43.278Z,60.90
2022-10-05T15:33:04.398Z,60.60
2022-10-05T15:36:14.356Z,60.50
2022-10-05T15:39:26.432Z,60.30
2022-10-05T15:42:34.758Z,59.80
2022-10-05T15:45:52.953Z,59.50
2022-10-05T15:49:08.077Z,59.20
2022-10-05T15:52:21.877Z,58.70
2022-10-05T15:55:34.402Z,58.40
2022-10-05T15:58:46.143Z,58.10
2022-10-05T16:01:52.391Z,59.00
2022-10-05T16:05:04.603Z,57.80
2022-10-05T16:08:25.577Z,57.60
2022-10-05T16:11:40.055Z,57.50
2022-10-05T16:14:55.225Z,57.20
2022-10-05T16:18:15.482Z,57.10
2022-10-05T16:21:28.808Z,57.00
2022-10-05T16:24:50.791Z,57.00
2022-10-05T16:28:05.646Z,57.10
2022-10-05T16:31:18.052Z,57.00
2022-10-05T16:34:34.434Z,56.80
2022-10-05T16:37:45.570Z,56.80
2022-10-05T16:40:57.247Z,57.00
2022-10-05T16:44:13.768Z,57.40
2022-10-05T16:47:36.915Z,57.20
2022-10-05T16:50:46.381Z,57.10
2022-10-05T16:53:59.282Z,57.10
2022-10-05T16:57:06.283Z,57.10
2022-10-05T17:00:19.664Z,57.30
2022-10-05T17:03:32.299Z,57.20
2022-10-05T17:06:53.208Z,57.10
2022-10-05T17:10:15.085Z,57.30
2022-10-05T17:13:36.573Z,57.30
2022-10-05T17:16:47.001Z,57.50
2022-10-05T17:19:58.613Z,57.40
2022-10-05T17:23:04.419Z,57.40
2022-10-05T17:26:31.447Z,57.20
2022-10-05T17:29:46.803Z,57.00
2022-10-05T17:32:56.758Z,56.80
2022-10-05T17:36:20.509Z,56.70
2022-10-05T17:39:42.763Z,56.80
2022-10-05T17:42:48.162Z,56.80
2022-10-05T17:45:55.344Z,56.60
2022-10-05T17:49:21.126Z,56.50
2022-10-05T17:52:35.401Z,56.20
2022-10-05T17:55:45.357Z,56.50
2022-10-05T17:58:57.660Z,56.40
2022-10-05T18:02:19.391Z,56.50
2022-10-05T18:05:26.981Z,56.50
2022-10-05T18:08:37.130Z,56.70
2022-10-05T18:11:41.518Z,56.60
2022-10-05T18:14:55.528Z,56.60
2022-10-05T18:18:18.397Z,56.50
2022-10-05T18:21:37.208Z,56.50
2022-10-05T18:24:52.170Z,56.20
2022-10-05T18:28:08.616Z,56.30
2022-10-05T18:31:22.722Z,56.60
2022-10-05T18:34:31.945Z,56.50
2022-10-05T18:37:50.525Z,56.50
2022-10-05T18:40:59.936Z,56.50
2022-10-05T18:44:18.507Z,56.30
2022-10-05T18:47:31.309Z,56.60
2022-10-05T18:50:41.233Z,56.20
2022-10-05T18:53:51.157Z,56.00
2022-10-05T18:56:52.924Z,55.90
2022-10-05T19:00:00.174Z,56.00
2022-10-05T19:03:10.897Z,55.90
2022-10-05T19:06:20.256Z,55.60
2022-10-05T19:09:37.790Z,55.50
2022-10-05T19:12:55.094Z,55.40
2022-10-05T19:16:09.558Z,55.00
2022-10-05T19:19:29.378Z,54.80
2022-10-05T19:22:49.157Z,54.80
2022-10-05T19:25:54.368Z,54.40
2022-10-05T19:29:07.125Z,54.30
2022-10-05T19:32:17.720Z,54.00
2022-10-05T19:35:30.900Z,53.70
2022-10-05T19:38:40.800Z,53.70
2022-10-05T19:41:58.116Z,53.40
2022-10-05T19:45:09.653Z,53.00
2022-10-05T19:48:23.303Z,52.80
2022-10-05T19:51:29.632Z,52.80
2022-10-05T19:54:31.765Z,53.00
2022-10-05T19:57:33.768Z,52.60
2022-10-05T20:00:36.931Z,52.50
2022-10-05T20:03:38.915Z,52.50
2022-10-05T20:06:41.611Z,52.20
2022-10-05T20:09:53.362Z,52.20
2022-10-05T20:12:56.953Z,51.80
2022-10-05T20:16:23.445Z,51.50
2022-10-05T20:19:42.146Z,51.70
2022-10-05T20:22:46.181Z,51.30
2022-10-05T20:26:09.396Z,51.40
2022-10-05T20:29:14.020Z,51.20
2022-10-05T20:32:17.101Z,51.30
2022-10-05T20:35:21.594Z,51.20
2022-10-05T20:38:23.594Z,51.20
2022-10-05T20:41:25.206Z,51.00
2022-10-05T20:44:26.766Z,51.20
2022-10-05T20:47:28.517Z,51.30
2022-10-05T20:50:32.076Z,51.20
2022-10-05T20:53:34.224Z,51.40
2022-10-05T20:56:35.931Z,50.90
2022-10-05T20:59:37.764Z,50.80
2022-10-05T21:02:39.346Z,51.10
2022-10-05T21:05:40.783Z,51.00
2022-10-05T21:08:43.356Z,51.20
2022-10-05T21:11:46.560Z,51.00
2022-10-05T21:14:51.779Z,50.90
2022-10-05T21:17:55.981Z,50.90
2022-10-05T21:21:01.387Z,51.00
2022-10-05T21:24:05.247Z,51.00
2022-10-05T21:27:08.155Z,50.50
2022-10-05T21:30:10.295Z,50.80
2022-10-05T21:33:11.715Z,50.70
2022-10-05T21:36:13.781Z,50.80
2022-10-05T21:39:15.960Z,51.10
2022-10-05T21:42:17.401Z,50.90
2022-10-05T21:45:18.696Z,50.90
2022-10-05T21:48:20.951Z,51.50
2022-10-05T21:51:26.864Z,51.00
2022-10-05T21:54:29.725Z,50.80
2022-10-05T21:57:32.976Z,50.90
2022-10-05T22:00:34.532Z,50.80
2022-10-05T22:03:36.101Z,51.20
2022-10-05T22:06:37.550Z,51.00
2022-10-05T22:09:39.392Z,50.90
2022-10-05T22:12:41.803Z,51.10
2022-10-05T22:15:43.445Z,51.10
2022-10-05T22:18:48.225Z,51.20
2022-10-05T22:21:52.787Z,51.20
2022-10-05T22:24:55.738Z,50.80
2022-10-05T22:27:57.380Z,51.00
2022-10-05T22:31:04.419Z,51.20
2022-10-05T22:34:05.984Z,51.00
2022-10-05T22:37:12.233Z,51.20
2022-10-05T22:40:14.344Z,51.00
2022-10-05T22:43:15.825Z,51.20
2022-10-05T22:46:17.782Z,51.10
2022-10-05T22:49:19.477Z,51.10
2022-10-05T22:52:20.989Z,50.90
2022-10-05T22:55:23.732Z,50.90
2022-10-05T22:58:25.629Z,50.90
2022-10-05T23:01:27.543Z,51.00
2022-10-05T23:04:29.284Z,50.90
2022-10-05T23:07:35.599Z,51.10
2022-10-05T23:10:37.586Z,50.80
2022-10-05T23:13:39.859Z,51.20
2022-10-05T23:16:41.323Z,50.60
2022-10-05T23:19:42.883Z,51.00
2022-10-05T23:22:47.502Z,50.80
2022-10-05T23:25:49.872Z,50.70
2022-10-05T23:28:51.275Z,50.40
2022-10-05T23:31:52.645Z,50.50
2022-10-05T23:34:54.093Z,50.90
2022-10-05T23:37:55.451Z,50.80
2022-10-05T23:41:01.730Z,50.90
2022-10-05T23:44:03.170Z,50.40
2022-10-05T23:47:04.512Z,50.50
2022-10-05T23:50:07.662Z,50.70
2022-10-05T23:53:09.144Z,50.30
2022-10-05T23:56:12.175Z,50.50
2022-10-05T23:59:13.752Z,50.30
